Time;durP1;ratioP1;P1;durP2;ratioP2;P2;SDS_P1;SDS_P2;PMS_P1;PMS_P2;Temp;Humidity;BMP_temperature;BMP_pressure;BME280_temperature;BME280_humidity;BME280_pressure;Samples;Min_cycle;Max_cycle;Signal;HPM_P1;HPM_P2
2021/11/04 00:01:36;;;;;;;75.68;30.95;;;7.10;99.90;;;;;;6718580;88;20962;-76
2021/11/04 00:11:36;;;;;;;89.53;32.70;;;7.00;99.90;;;;;;6717331;88;20239;-76
2021/11/04 00:21:37;;;;;;;86.93;32.25;;;7.00;99.90;;;;;;6717233;88;21019;-77
2021/11/04 00:31:38;;;;;;;88.93;34.22;;;7.10;99.90;;;;;;6716883;88;20714;-76
2021/11/04 00:41:39;;;;;;;86.07;31.52;;;7.00;99.90;;;;;;6716505;88;20210;-77
2021/11/04 00:51:39;;;;;;;81.03;32.80;;;7.10;99.90;;;;;;6715742;88;20204;-76
2021/11/04 01:01:40;;;;;;;87.65;32.80;;;7.10;99.90;;;;;;6715807;88;20938;-77
2021/11/04 01:11:41;;;;;;;89.10;33.90;;;7.10;99.90;;;;;;6715846;88;20236;-76
2021/11/04 01:21:42;;;;;;;93.37;32.10;;;7.00;99.90;;;;;;6716399;88;20795;-77
2021/11/04 01:31:42;;;;;;;96.78;32.95;;;7.00;99.90;;;;;;6716145;88;20510;-76
2021/11/04 01:41:43;;;;;;;85.32;30.50;;;7.00;99.90;;;;;;6708878;88;20204;-77
2021/11/04 01:51:44;;;;;;;83.60;29.17;;;6.90;99.90;;;;;;6701286;88;20182;-76
2021/11/04 02:01:49;;;;;;;78.87;28.17;;;6.90;99.90;;;;;;6709307;88;20400;-76
2021/11/04 02:11:59;;;;;;;71.72;27.05;;;7.00;99.90;;;;;;6718247;88;20728;-77
2021/11/04 02:22:02;;;;;;;73.25;26.83;;;7.10;99.90;;;;;;6718835;88;20169;-76
2021/11/04 02:32:03;;;;;;;79.03;27.92;;;7.00;99.90;;;;;;6721128;88;20287;-76
2021/11/04 02:42:04;;;;;;;74.50;26.83;;;6.90;99.90;;;;;;6717693;88;22769;-76
2021/11/04 02:52:05;;;;;;;75.03;27.87;;;6.90;99.90;;;;;;6700510;88;20214;-76
2021/11/04 03:02:06;;;;;;;77.37;28.60;;;6.90;99.90;;;;;;6703263;88;20354;-77
2021/11/04 03:12:08;;;;;;;80.20;27.55;;;6.90;99.90;;;;;;6720382;88;20181;-77
2021/11/04 03:22:09;;;;;;;77.12;27.27;;;6.80;99.90;;;;;;6717826;88;20193;-77
2021/11/04 03:32:16;;;;;;;81.20;27.85;;;6.80;99.90;;;;;;6720243;88;20211;-78
2021/11/04 03:42:17;;;;;;;83.50;27.48;;;6.70;99.90;;;;;;6721398;88;20240;-77
2021/11/04 03:52:19;;;;;;;70.45;26.25;;;6.70;99.90;;;;;;6715969;88;20300;-77
2021/11/04 04:02:22;;;;;;;79.87;26.50;;;6.70;99.90;;;;;;6677668;88;20283;-77
2021/11/04 04:12:23;;;;;;;83.93;25.98;;;6.70;99.90;;;;;;6635970;89;20208;-77
2021/11/04 04:22:24;;;;;;;82.03;25.37;;;6.60;99.90;;;;;;6639109;88;20207;-77
2021/11/04 04:32:24;;;;;;;77.70;24.55;;;6.60;99.90;;;;;;6694247;88;20609;-77
2021/11/04 04:42:25;;;;;;;81.63;26.10;;;6.60;99.90;;;;;;6722477;88;20178;-77
2021/11/04 04:52:26;;;;;;;86.43;28.67;;;6.50;99.90;;;;;;6721240;88;21205;-78
2021/11/04 05:02:27;;;;;;;100.53;30.83;;;6.50;99.90;;;;;;6726156;88;20207;-78
2021/11/04 05:12:28;;;;;;;95.75;30.50;;;6.50;99.90;;;;;;6738042;88;20718;-78
2021/11/04 05:22:29;;;;;;;100.65;32.20;;;6.50;99.90;;;;;;6724442;88;20181;-78
2021/11/04 05:32:29;;;;;;;100.85;33.10;;;6.50;99.90;;;;;;6724428;88;20166;-78
2021/11/04 05:42:30;;;;;;;100.75;30.65;;;6.50;99.90;;;;;;6726713;88;20198;-78
2021/11/04 05:52:31;;;;;;;103.47;30.80;;;6.40;99.90;;;;;;6726413;88;20186;-79
2021/11/04 06:02:31;;;;;;;106.82;30.92;;;6.50;99.90;;;;;;6725105;88;20375;-77
2021/11/04 06:12:32;;;;;;;99.35;29.58;;;6.50;99.90;;;;;;6730362;88;20388;-79
2021/11/04 06:22:33;;;;;;;103.53;30.35;;;6.50;99.90;;;;;;6732911;88;20540;-79
2021/11/04 06:32:34;;;;;;;105.47;30.65;;;6.40;99.90;;;;;;6735226;88;20177;-78
2021/11/04 06:42:36;;;;;;;91.93;28.83;;;6.40;99.90;;;;;;6733026;88;20826;-78
2021/11/04 06:52:43;;;;;;;90.07;29.75;;;6.40;99.90;;;;;;6724631;88;20348;-78
2021/11/04 07:02:51;;;;;;;97.28;29.00;;;6.40;99.90;;;;;;6728240;88;20203;-78
2021/11/04 07:12:52;;;;;;;95.53;29.42;;;6.30;99.90;;;;;;6732461;88;20232;-77
2021/11/04 07:22:54;;;;;;;90.20;27.02;;;6.20;99.90;;;;;;6734470;88;20910;-76
2021/11/04 07:33:05;;;;;;;75.00;25.80;;;6.20;99.90;;;;;;6731054;88;20685;-78
2021/11/04 07:43:06;;;;;;;77.82;23.95;;;6.20;99.90;;;;;;6722194;88;20216;-78
2021/11/04 07:53:07;;;;;;;71.57;24.45;;;6.20;99.90;;;;;;6721063;88;20332;-78
2021/11/04 08:03:07;;;;;;;78.07;24.92;;;6.20;99.90;;;;;;6721642;88;20216;-78
2021/11/04 08:13:13;;;;;;;92.28;25.00;;;6.30;99.90;;;;;;6722085;88;20797;-78
2021/11/04 08:23:15;;;;;;;69.20;23.05;;;6.30;99.90;;;;;;6724206;88;20212;-78
2021/11/04 08:33:16;;;;;;;68.87;23.67;;;6.40;99.90;;;;;;6736756;88;20886;-78
2021/11/04 08:43:17;;;;;;;72.35;21.02;;;6.40;99.90;;;;;;6733898;88;20210;-77
2021/11/04 08:53:18;;;;;;;66.72;21.70;;;6.30;99.90;;;;;;6733659;88;20212;-78
2021/11/04 09:03:18;;;;;;;65.60;20.80;;;6.60;99.90;;;;;;6732219;88;20265;-78
2021/11/04 09:13:20;;;;;;;68.18;21.95;;;6.80;99.90;;;;;;6736435;88;20193;-77
2021/11/04 09:23:20;;;;;;;62.40;20.42;;;7.00;99.90;;;;;;6739310;88;21171;-78
2021/11/04 09:33:21;;;;;;;64.55;20.65;;;7.20;99.90;;;;;;6736347;88;20206;-78
2021/11/04 09:43:22;;;;;;;67.03;21.95;;;7.20;99.90;;;;;;6729896;88;20216;-78
2021/11/04 09:53:22;;;;;;;60.67;20.70;;;7.60;99.90;;;;;;6739539;88;20890;-78
2021/11/04 10:03:23;;;;;;;62.97;21.08;;;7.70;99.90;;;;;;6740814;88;20638;-79
2021/11/04 10:13:30;;;;;;;58.60;21.77;;;8.00;99.90;;;;;;6738631;88;20297;-79
2021/11/04 10:23:35;;;;;;;54.92;21.08;;;8.20;99.90;;;;;;6725157;88;20288;-78
2021/11/04 10:33:44;;;;;;;57.33;21.77;;;8.20;99.90;;;;;;6729987;88;20254;-80
2021/11/04 10:43:50;;;;;;;55.20;21.42;;;8.10;99.90;;;;;;6729881;88;20186;-78
2021/11/04 10:54:01;;;;;;;52.47;20.73;;;8.50;99.90;;;;;;6728207;88;20214;-78
2021/11/04 11:04:12;;;;;;;52.05;20.30;;;8.80;99.90;;;;;;6724442;88;20393;-78
2021/11/04 11:14:15;;;;;;;46.85;18.87;;;8.80;99.90;;;;;;6718187;88;20236;-78
2021/11/04 11:24:15;;;;;;;49.08;20.08;;;8.90;99.90;;;;;;6726536;88;20617;-76
2021/11/04 11:34:20;;;;;;;45.70;19.37;;;9.00;99.90;;;;;;6724318;88;20204;-77
2021/11/04 11:44:52;;;;;;;51.00;21.25;;;9.00;99.90;;;;;;6730268;88;20568;-78
2021/11/04 11:54:53;;;;;;;52.62;20.17;;;8.80;99.90;;;;;;6724253;88;20217;-77
2021/11/04 12:04:53;;;;;;;54.20;22.13;;;8.80;99.90;;;;;;6716293;88;20190;-78
2021/11/04 12:15:04;;;;;;;49.47;19.35;;;8.90;99.90;;;;;;6721066;88;20205;-77
2021/11/04 12:25:11;;;;;;;39.78;18.52;;;9.00;99.90;;;;;;6719894;88;21138;-76
2021/11/04 12:35:12;;;;;;;34.80;15.40;;;9.50;99.90;;;;;;6721585;88;20663;-78
2021/11/04 12:45:25;;;;;;;33.42;14.52;;;9.70;99.90;;;;;;6726122;88;20237;-78
2021/11/04 12:55:26;;;;;;;30.65;14.30;;;10.30;99.90;;;;;;6724758;88;20221;-78
2021/11/04 13:05:27;;;;;;;30.77;15.35;;;11.50;99.90;;;;;;6724417;88;20348;-76
2021/11/04 13:15:35;;;;;;;30.43;14.90;;;11.20;99.90;;;;;;6726439;88;20637;-76
2021/11/04 13:25:42;;;;;;;28.67;14.70;;;10.80;99.90;;;;;;6717476;88;20629;-76
2021/11/04 13:35:45;;;;;;;24.85;12.95;;;10.30;99.90;;;;;;6716171;88;20261;-75
2021/11/04 13:45:47;;;;;;;26.62;13.88;;;10.10;99.90;;;;;;6718303;88;20825;-77
2021/11/04 13:55:49;;;;;;;29.40;15.13;;;9.90;99.90;;;;;;6715333;88;20208;-77
2021/11/04 14:06:00;;;;;;;28.05;13.23;;;10.10;99.90;;;;;;6721376;88;20206;-77
2021/11/04 14:16:00;;;;;;;28.23;13.45;;;10.20;99.90;;;;;;6728968;88;20962;-76
2021/11/04 14:26:01;;;;;;;25.98;12.98;;;9.90;99.90;;;;;;6722425;88;20175;-75
2021/11/04 14:36:01;;;;;;;28.45;15.20;;;9.70;99.90;;;;;;6721430;88;20350;-75
2021/11/04 14:46:02;;;;;;;21.52;10.77;;;9.60;99.90;;;;;;6722378;88;20251;-75
2021/11/04 14:56:05;;;;;;;17.37;8.30;;;8.90;99.90;;;;;;6718807;88;20233;-76
2021/11/04 15:06:05;;;;;;;16.98;8.90;;;9.00;99.90;;;;;;6721276;88;20549;-76
2021/11/04 15:16:07;;;;;;;20.45;9.38;;;8.90;99.90;;;;;;6719619;88;20325;-76
2021/11/04 15:26:08;;;;;;;16.77;8.38;;;8.80;99.90;;;;;;6725051;88;20224;-75
2021/11/04 15:36:09;;;;;;;14.60;7.35;;;8.80;99.90;;;;;;6721336;88;20274;-75
2021/11/04 15:46:10;;;;;;;9.98;5.45;;;8.70;99.90;;;;;;6727765;88;20204;-76
2021/11/04 15:56:12;;;;;;;11.45;5.60;;;8.70;99.90;;;;;;6727603;88;20752;-77
2021/11/04 16:06:35;;;;;;;10.50;5.03;;;8.60;99.90;;;;;;6725556;88;20398;-76
2021/11/04 16:16:36;;;;;;;9.35;4.75;;;8.60;99.90;;;;;;6724639;88;20225;-78
2021/11/04 16:26:40;;;;;;;6.62;3.87;;;8.60;99.90;;;;;;6724502;88;20196;-79
2021/11/04 16:37:06;;;;;;;6.87;3.53;;;8.60;99.90;;;;;;6723021;88;20243;-75
2021/11/04 16:47:07;;;;;;;;;;;8.60;99.90;;;;;;6722044;88;20186;-78
2021/11/04 16:57:08;;;;;;;6.82;4.40;;;8.50;99.90;;;;;;6721211;88;20853;-76
2021/11/04 17:07:08;;;;;;;8.93;5.30;;;8.50;99.90;;;;;;6723434;88;20233;-76
2021/11/04 17:17:09;;;;;;;5.77;2.97;;;8.50;99.90;;;;;;6725423;88;20189;-76
2021/11/04 17:27:10;;;;;;;5.15;3.08;;;8.50;99.90;;;;;;6728723;88;21106;-76
2021/11/04 17:37:10;;;;;;;4.87;2.55;;;8.50;99.90;;;;;;6725674;88;20306;-76
2021/11/04 17:47:11;;;;;;;4.40;2.70;;;8.50;99.90;;;;;;6731036;88;20774;-75
2021/11/04 18:07:15;;;;;;;4.22;1.98;;;8.50;99.90;;;;;;6743216;88;20242;-78
2021/11/04 18:17:16;;;;;;;3.23;1.60;;;8.50;99.90;;;;;;6740896;88;20961;-77
2021/11/04 18:27:16;;;;;;;3.60;1.62;;;8.60;99.90;;;;;;6744426;88;20517;-79
2021/11/04 18:37:18;;;;;;;3.17;1.70;;;8.60;99.90;;;;;;6747447;88;20196;-80
2021/11/04 18:47:18;;;;;;;2.60;1.50;;;8.50;99.90;;;;;;6734724;88;20202;-80
2021/11/04 18:57:19;;;;;;;6.32;3.90;;;8.40;99.90;;;;;;6727775;88;20269;-78
2021/11/04 19:07:20;;;;;;;4.50;3.00;;;8.30;99.90;;;;;;6733615;88;20763;-78
2021/11/04 19:17:21;;;;;;;3.67;1.80;;;8.50;99.90;;;;;;6743283;88;20266;-79
2021/11/04 19:27:25;;;;;;;3.87;2.15;;;8.40;99.90;;;;;;6741301;88;20525;-78
2021/11/04 19:37:26;;;;;;;4.10;2.40;;;8.40;99.90;;;;;;6742536;88;20707;-79
2021/11/04 19:47:27;;;;;;;4.25;2.50;;;8.30;99.90;;;;;;6743152;88;20196;-79
2021/11/04 19:57:27;;;;;;;5.78;2.97;;;8.40;99.90;;;;;;6745020;88;20295;-79
2021/11/04 20:07:28;;;;;;;5.32;3.08;;;8.40;99.90;;;;;;6745573;88;20184;-79
2021/11/04 20:17:28;;;;;;;6.35;3.72;;;8.50;99.90;;;;;;6741118;88;20366;-79
2021/11/04 20:27:32;;;;;;;6.70;4.22;;;8.50;99.90;;;;;;6737727;88;20704;-79
2021/11/04 20:37:32;;;;;;;36.97;14.15;;;8.50;99.90;;;;;;6748076;88;20547;-80
2021/11/04 20:47:33;;;;;;;11.23;5.43;;;8.20;99.90;;;;;;6751297;88;20225;-79
2021/11/04 20:57:34;;;;;;;14.63;7.35;;;8.00;99.90;;;;;;6751486;88;20202;-79
2021/11/04 21:07:34;;;;;;;12.55;7.00;;;7.70;99.90;;;;;;6752030;88;20213;-81
2021/11/04 21:17:38;;;;;;;12.65;7.37;;;7.50;99.90;;;;;;6761715;87;20639;-79
2021/11/04 21:27:42;;;;;;;13.95;7.68;;;7.40;99.90;;;;;;6760252;88;20223;-80
2021/11/04 21:37:43;;;;;;;19.17;8.90;;;7.20;99.90;;;;;;6752604;88;20660;-78
2021/11/04 21:47:45;;;;;;;17.58;9.05;;;7.20;99.90;;;;;;6745658;88;20198;-79
2021/11/04 21:57:49;;;;;;;18.60;8.75;;;7.40;99.90;;;;;;6746526;88;20234;-79
2021/11/04 22:07:51;;;;;;;23.12;11.55;;;7.50;99.90;;;;;;6733715;88;20182;-79
2021/11/04 22:18:08;;;;;;;18.42;9.98;;;7.60;99.90;;;;;;6750918;88;20235;-80
2021/11/04 22:28:09;;;;;;;21.65;11.63;;;7.80;99.90;;;;;;6727257;88;20199;-80
2021/11/04 22:38:10;;;;;;;29.20;13.23;;;7.80;99.90;;;;;;6747773;88;20188;-79
2021/11/04 22:48:13;;;;;;;29.65;14.07;;;7.90;99.90;;;;;;6748645;88;20264;-78
2021/11/04 22:58:14;;;;;;;32.30;15.63;;;7.80;99.90;;;;;;6746325;88;20188;-79
2021/11/04 23:08:15;;;;;;;35.58;16.87;;;7.80;99.90;;;;;;6746067;88;20227;-78
2021/11/04 23:18:16;;;;;;;41.78;18.75;;;7.90;99.90;;;;;;6745763;88;20236;-79
2021/11/04 23:28:17;;;;;;;36.55;17.45;;;7.80;99.90;;;;;;6746785;88;20279;-79
2021/11/04 23:38:18;;;;;;;44.67;19.80;;;7.80;99.90;;;;;;6748356;88;20625;-80
2021/11/04 23:48:18;;;;;;;42.33;19.37;;;7.80;99.90;;;;;;6746426;88;20205;-80
2021/11/04 23:58:19;;;;;;;45.33;18.80;;;7.60;99.90;;;;;;6747339;88;20203;-79
